Sylvan Township, Michigan
Current Conditions -  °F | °C
As of 12:53 AM on Monday 26 Jan 2015 (Local Time) from KARB Reporting Station
Few Clouds Few Clouds  
Wind Chill: -15°   Ceiling: Unl
Heat Index: -8°   Visibility: 10mi
Dew Point: -13°   Wind: 12mph
Humidity: 65%   Direction: 40°NE
Pressure: 29.96"   Gusts: NA
Location:  42.3129°N, 84.0322°W
Report Text: KARB 260553Z AUTO 04010KT 10SM FEW120 M08/M13 A2996 RMK AO2 SLP158 T10781133 11061 21078 50001
Loading
Personal Weather Stations






























Interactive Weather Map New forecast layout! Learn more

10-Day Weather Forecast

Advertisements
Track Severe Weather on mobile